Main page
Satellite images 10-day forecastsClimateMarine weather Cyclones Lightning AirportsFAQ Newsletter About
Weather : Europe Africa North America South America Asia Australia-Oceania Others
Languages Contact

Podgorica, Montenegro

Podgorica Airport

latitude: 42-26N, longitude: 019-17E, elevation: 53 m


METAR: LYPG 300200Z VRB01KT CAVOK 12/07 Q1014 NOSIG
TAF: LYPG 292300Z 3000/3024 36006KT CAVOK TX28/3013Z TN12/3004Z

Time: 04:09 (02:09 UTC)

Current weather observation

The report was made 9 minutes ago, at 02:00 UTC
Wind 1 kt from variable directions
Temperature 12°C
Humidity 71%
Pressure 1014 hPa
Visibility 10 km or more
no clouds below 1500 m and no cumulonimbus

Change units

Forecast

The report was made 3 hours and 9 minutes ago, at 23:00 UTC
Forecast valid from 30 at 00 UTC to 30 at 24 UTC
Wind 6 kt from the North
Visibility 10 km or more
no clouds below 1500 m and no cumulonimbus
The information on this site is subject to a disclaimer
Weather : Europe Africa North America South America Asia Australia-Oceania Others
Satellite images 10-day forecastsClimateMarine weather Cyclones Lightning AirportsFAQ Languages Contact Newsletter About